Time;durP1;ratioP1;P1;durP2;ratioP2;P2;SDS_P1;SDS_P2;PMS_P1;PMS_P2;Temp;Humidity;BMP_temperature;BMP_pressure;BME280_temperature;BME280_humidity;BME280_pressure;Samples;Min_cycle;Max_cycle;Signal;HPM_P1;HPM_P2
2022/08/05 00:00:32;;;;;;;3.23;2.93;;;24.80;99.90;;;;;;493288;241;28775;-71
2022/08/05 00:02:33;;;;;;;3.00;2.80;;;24.80;99.90;;;;;;493265;241;29135;-69
2022/08/05 00:04:35;;;;;;;3.70;3.13;;;24.70;99.90;;;;;;493257;241;29205;-68
2022/08/05 00:06:36;;;;;;;5.90;2.50;;;24.70;99.90;;;;;;493089;241;29919;-69
2022/08/05 00:08:37;;;;;;;4.60;2.93;;;24.70;99.90;;;;;;493239;241;29203;-69
2022/08/05 00:10:39;;;;;;;4.33;2.37;;;24.70;99.90;;;;;;493269;241;28803;-70
2022/08/05 00:12:40;;;;;;;3.50;3.03;;;24.60;99.90;;;;;;493252;241;28677;-69
2022/08/05 00:14:41;;;;;;;3.40;2.73;;;24.60;99.90;;;;;;493277;241;28708;-70
2022/08/05 00:16:42;;;;;;;2.60;2.40;;;24.70;99.90;;;;;;493134;241;28689;-68
2022/08/05 00:18:44;;;;;;;6.80;3.30;;;24.70;99.90;;;;;;493293;241;28676;-69
2022/08/05 00:20:45;;;;;;;4.03;3.17;;;24.50;99.90;;;;;;493291;241;28720;-69
2022/08/05 00:22:46;;;;;;;10.53;3.27;;;24.50;99.90;;;;;;493284;241;28705;-69
2022/08/05 00:24:47;;;;;;;3.77;2.83;;;24.40;99.90;;;;;;493276;241;28738;-69
2022/08/05 00:26:49;;;;;;;4.50;2.93;;;24.40;99.90;;;;;;493214;241;30078;-69
2022/08/05 00:28:50;;;;;;;9.50;3.47;;;24.40;99.90;;;;;;493265;241;29160;-69
2022/08/05 00:30:51;;;;;;;15.03;3.60;;;24.40;99.90;;;;;;493289;241;29181;-70
2022/08/05 00:32:52;;;;;;;4.30;3.07;;;24.30;99.90;;;;;;493281;241;28682;-68
2022/08/05 00:34:54;;;;;;;3.23;2.83;;;24.30;99.90;;;;;;493275;241;28802;-69
2022/08/05 00:36:55;;;;;;;5.00;2.97;;;24.20;99.90;;;;;;493016;241;28681;-69
2022/08/05 00:38:56;;;;;;;2.87;2.67;;;24.20;99.90;;;;;;493292;241;28815;-69
2022/08/05 00:41:01;;;;;;;7.10;3.43;;;24.10;99.90;;;;;;493290;241;28707;-72
2022/08/05 00:42:59;;;;;;;8.70;3.20;;;24.10;99.90;;;;;;493098;241;28722;-69
2022/08/05 00:45:00;;;;;;;4.80;2.90;;;24.00;99.90;;;;;;493268;241;28817;-69
2022/08/05 00:47:01;;;;;;;4.93;3.07;;;24.00;99.90;;;;;;493204;241;28673;-68
2022/08/05 00:49:02;;;;;;;3.50;3.17;;;23.90;99.90;;;;;;493294;241;28722;-69
2022/08/05 00:51:04;;;;;;;4.33;3.20;;;23.90;99.90;;;;;;493284;241;29217;-70
2022/08/05 00:53:05;;;;;;;3.43;3.13;;;23.90;99.90;;;;;;493188;241;29140;-69
2022/08/05 00:55:06;;;;;;;4.27;3.30;;;23.90;99.90;;;;;;493292;241;29245;-69
2022/08/05 00:57:07;;;;;;;4.83;3.50;;;23.80;99.90;;;;;;493207;241;29157;-70
2022/08/05 00:59:09;;;;;;;6.40;3.63;;;23.80;99.90;;;;;;493308;241;28740;-70
2022/08/05 01:01:10;;;;;;;6.10;2.90;;;23.80;99.90;;;;;;493271;241;28726;-71
2022/08/05 01:03:11;;;;;;;3.53;2.90;;;23.80;99.90;;;;;;493273;241;28680;-70
2022/08/05 01:05:12;;;;;;;3.67;2.90;;;23.90;99.90;;;;;;493227;241;28776;-69
2022/08/05 01:07:14;;;;;;;5.80;2.87;;;24.00;99.90;;;;;;493163;241;28680;-69
2022/08/05 01:09:15;;;;;;;2.60;2.40;;;24.10;99.90;;;;;;493312;241;28753;-69
2022/08/05 01:11:17;;;;;;;3.53;2.63;;;24.10;99.90;;;;;;493305;241;28858;-71
2022/08/05 01:13:17;;;;;;;3.60;2.70;;;24.10;99.90;;;;;;493234;241;28665;-69
2022/08/05 01:15:19;;;;;;;2.90;2.63;;;23.90;99.90;;;;;;493268;241;29212;-69
2022/08/05 01:17:21;;;;;;;5.83;2.83;;;23.80;99.90;;;;;;493223;241;30032;-69
2022/08/05 01:19:21;;;;;;;2.97;2.67;;;23.80;99.90;;;;;;493253;241;29119;-69
2022/08/05 01:21:24;;;;;;;2.90;2.70;;;23.90;99.90;;;;;;493327;241;29321;-70
2022/08/05 01:23:24;;;;;;;2.37;2.27;;;24.00;99.90;;;;;;493174;241;28767;-68
2022/08/05 01:25:25;;;;;;;2.80;2.60;;;24.00;99.90;;;;;;493274;241;28735;-69
2022/08/05 01:27:26;;;;;;;2.20;2.10;;;24.00;99.90;;;;;;493216;241;28711;-68
2022/08/05 01:29:27;;;;;;;2.53;2.33;;;24.00;99.90;;;;;;493280;241;28743;-68
2022/08/05 01:31:29;;;;;;;2.33;2.13;;;23.90;99.90;;;;;;493259;241;28717;-70
2022/08/05 01:33:30;;;;;;;2.17;2.07;;;23.90;99.90;;;;;;493265;241;28710;-68
2022/08/05 01:35:31;;;;;;;2.53;2.33;;;23.90;99.90;;;;;;493076;241;28739;-69
2022/08/05 01:37:32;;;;;;;2.20;2.00;;;23.90;99.90;;;;;;493227;241;29101;-68
2022/08/05 01:39:34;;;;;;;2.53;1.80;;;23.90;99.90;;;;;;493305;241;28782;-68
2022/08/05 01:41:35;;;;;;;2.47;2.27;;;24.00;99.90;;;;;;493293;241;29280;-70
2022/08/05 01:43:36;;;;;;;2.30;2.20;;;23.90;99.90;;;;;;493258;241;29207;-69
2022/08/05 01:45:37;;;;;;;2.20;2.10;;;23.80;99.90;;;;;;493237;241;29201;-69
2022/08/05 01:47:39;;;;;;;2.43;2.00;;;23.80;99.90;;;;;;493231;241;28735;-69
2022/08/05 01:49:40;;;;;;;2.53;2.30;;;23.80;99.90;;;;;;493296;241;28663;-69
2022/08/05 01:51:41;;;;;;;2.10;2.00;;;23.80;99.90;;;;;;493267;241;28774;-70
2022/08/05 01:53:42;;;;;;;3.30;2.40;;;23.70;99.90;;;;;;493270;241;28752;-69
2022/08/05 01:55:44;;;;;;;2.63;2.43;;;23.60;99.90;;;;;;493269;241;28708;-69
2022/08/05 01:57:45;;;;;;;2.87;2.60;;;23.60;99.90;;;;;;493262;241;28821;-72
2022/08/05 01:59:46;;;;;;;3.53;2.27;;;23.50;99.90;;;;;;493270;241;28736;-69
2022/08/05 02:01:47;;;;;;;4.00;2.10;;;23.50;99.90;;;;;;493286;241;28801;-70
2022/08/05 02:03:49;;;;;;;2.27;2.07;;;23.50;99.90;;;;;;493278;241;28768;-69
2022/08/05 02:05:50;;;;;;;2.53;2.33;;;23.40;99.90;;;;;;493257;241;29269;-69
2022/08/05 02:07:51;;;;;;;2.27;2.17;;;23.40;99.90;;;;;;493246;241;29207;-72
2022/08/05 02:09:52;;;;;;;3.27;2.40;;;23.40;99.90;;;;;;493282;241;29159;-69
2022/08/05 02:11:54;;;;;;;2.97;2.30;;;23.20;99.90;;;;;;493271;241;28713;-70
2022/08/05 02:13:55;;;;;;;2.50;2.30;;;23.30;99.90;;;;;;493267;241;28664;-69
2022/08/05 02:15:56;;;;;;;2.70;2.50;;;23.30;99.90;;;;;;493108;241;28708;-69
2022/08/05 02:17:57;;;;;;;2.47;2.27;;;23.30;99.90;;;;;;493212;241;28728;-72
2022/08/05 02:19:59;;;;;;;3.77;2.57;;;23.20;99.90;;;;;;493271;241;28667;-69
2022/08/05 02:22:00;;;;;;;2.30;2.20;;;23.20;99.90;;;;;;493265;241;28716;-70
2022/08/05 02:24:01;;;;;;;2.67;2.47;;;23.20;99.90;;;;;;493264;241;28688;-69
2022/08/05 02:26:02;;;;;;;2.80;2.60;;;23.00;99.90;;;;;;493222;241;28685;-70
2022/08/05 02:28:04;;;;;;;3.43;2.23;;;23.00;99.90;;;;;;493255;241;28778;-71
2022/08/05 02:30:05;;;;;;;3.17;2.50;;;23.10;99.90;;;;;;493261;241;29292;-69
2022/08/05 02:32:06;;;;;;;2.20;2.10;;;23.10;99.90;;;;;;493272;241;29287;-73
2022/08/05 02:34:07;;;;;;;2.57;2.37;;;23.10;99.90;;;;;;493245;241;29161;-69
2022/08/05 02:36:09;;;;;;;5.77;2.83;;;22.90;99.90;;;;;;493034;241;28719;-69
2022/08/05 02:38:10;;;;;;;3.53;2.80;;;22.70;99.90;;;;;;493272;241;28781;-73
2022/08/05 02:40:11;;;;;;;2.97;2.67;;;22.40;99.90;;;;;;493280;241;28740;-69
2022/08/05 02:42:12;;;;;;;3.07;2.73;;;22.30;99.90;;;;;;493283;241;28775;-69
2022/08/05 02:44:14;;;;;;;2.80;2.60;;;22.10;99.90;;;;;;493233;241;28690;-69
2022/08/05 02:46:15;;;;;;;2.80;2.60;;;22.00;99.90;;;;;;493220;241;28693;-69
2022/08/05 02:48:16;;;;;;;3.37;2.97;;;21.90;99.90;;;;;;493269;241;28783;-72
2022/08/05 02:50:17;;;;;;;2.90;2.60;;;21.90;99.90;;;;;;493303;241;28677;-69
2022/08/05 02:52:19;;;;;;;3.40;2.43;;;21.90;99.90;;;;;;493283;240;28717;-69
2022/08/05 02:54:20;;;;;;;2.60;2.40;;;21.80;99.90;;;;;;493288;241;29261;-69
2022/08/05 02:56:21;;;;;;;2.80;2.60;;;21.70;99.90;;;;;;493213;241;29180;-69
2022/08/05 02:58:22;;;;;;;6.33;3.00;;;21.60;99.90;;;;;;493281;241;29195;-70
2022/08/05 03:00:24;;;;;;;2.90;2.70;;;21.60;99.90;;;;;;493286;241;29202;-69
2022/08/05 03:02:25;;;;;;;3.10;2.60;;;21.60;99.90;;;;;;493259;241;28708;-69
2022/08/05 03:04:26;;;;;;;3.20;2.77;;;21.50;99.90;;;;;;493255;241;28709;-68
2022/08/05 03:06:27;;;;;;;3.53;2.83;;;21.50;99.90;;;;;;493206;241;28744;-69
2022/08/05 03:08:29;;;;;;;2.77;2.57;;;21.50;99.90;;;;;;493273;241;28709;-71
2022/08/05 03:10:30;;;;;;;3.20;2.90;;;21.40;99.90;;;;;;493276;241;28807;-69
2022/08/05 03:12:31;;;;;;;2.83;2.60;;;21.30;99.90;;;;;;493236;241;28708;-69
2022/08/05 03:14:32;;;;;;;3.00;2.80;;;21.10;99.90;;;;;;493260;241;28673;-70
2022/08/05 03:16:34;;;;;;;4.83;3.20;;;20.90;99.90;;;;;;493238;241;28814;-69
2022/08/05 03:18:35;;;;;;;3.57;3.27;;;20.90;99.90;;;;;;493291;241;28782;-73
2022/08/05 03:20:36;;;;;;;3.33;3.13;;;20.90;99.90;;;;;;493279;241;29283;-69
2022/08/05 03:22:37;;;;;;;5.73;2.83;;;21.00;99.90;;;;;;493269;241;29281;-70
2022/08/05 03:24:39;;;;;;;4.83;2.83;;;21.00;99.90;;;;;;493277;241;29205;-69
2022/08/05 03:26:40;;;;;;;4.07;2.93;;;21.00;99.90;;;;;;493189;241;28737;-68
2022/08/05 03:28:41;;;;;;;3.53;2.90;;;20.90;99.90;;;;;;493266;241;28784;-71
2022/08/05 03:30:43;;;;;;;3.67;3.30;;;20.90;99.90;;;;;;493279;241;28693;-70
2022/08/05 03:32:44;;;;;;;3.87;2.83;;;21.00;99.90;;;;;;493252;241;28705;-69
2022/08/05 03:34:45;;;;;;;3.93;3.53;;;21.00;99.90;;;;;;493252;241;28741;-69
2022/08/05 03:36:46;;;;;;;3.50;3.20;;;20.90;99.90;;;;;;493085;241;28747;-69
2022/08/05 03:38:47;;;;;;;3.03;2.83;;;20.80;99.90;;;;;;493279;241;29095;-72
2022/08/05 03:40:49;;;;;;;3.27;3.00;;;20.80;99.90;;;;;;493279;241;28684;-69
2022/08/05 03:42:50;;;;;;;3.13;2.93;;;20.80;99.90;;;;;;493238;240;28712;-69
2022/08/05 03:44:51;;;;;;;3.43;3.10;;;20.80;99.90;;;;;;493260;241;29133;-69
2022/08/05 03:46:52;;;;;;;2.87;2.67;;;20.80;99.90;;;;;;493192;241;29269;-69
2022/08/05 03:48:54;;;;;;;3.40;3.10;;;20.80;99.90;;;;;;493290;241;29203;-72
2022/08/05 03:50:55;;;;;;;3.10;2.90;;;20.80;99.90;;;;;;493261;241;28679;-69
2022/08/05 03:52:56;;;;;;;3.30;3.00;;;20.80;99.90;;;;;;493269;240;28739;-70
2022/08/05 03:54:58;;;;;;;3.13;2.93;;;20.80;99.90;;;;;;493240;241;28682;-68
2022/08/05 03:56:59;;;;;;;4.50;2.40;;;20.60;99.90;;;;;;493192;241;28852;-69
2022/08/05 03:59:00;;;;;;;3.20;2.90;;;20.60;99.90;;;;;;493256;241;28799;-71
2022/08/05 04:01:01;;;;;;;3.20;2.73;;;20.50;99.90;;;;;;493256;241;28688;-69
2022/08/05 04:03:02;;;;;;;3.83;3.23;;;20.40;99.90;;;;;;493245;241;28735;-70
2022/08/05 04:05:04;;;;;;;2.90;2.70;;;20.30;99.90;;;;;;493268;241;28690;-69
2022/08/05 04:07:05;;;;;;;3.30;3.10;;;20.30;99.90;;;;;;493187;241;28770;-69
2022/08/05 04:09:06;;;;;;;3.30;3.10;;;20.30;99.90;;;;;;493286;241;29203;-72
2022/08/05 04:11:08;;;;;;;2.90;2.70;;;20.30;99.90;;;;;;493276;241;29220;-68
2022/08/05 04:13:09;;;;;;;4.07;2.87;;;20.30;99.90;;;;;;493321;241;29278;-69
2022/08/05 04:15:10;;;;;;;3.40;2.80;;;20.20;99.90;;;;;;493305;241;29141;-69
2022/08/05 04:17:11;;;;;;;3.40;2.87;;;20.20;99.90;;;;;;493224;241;28816;-69
2022/08/05 04:19:13;;;;;;;3.20;3.00;;;20.20;99.90;;;;;;493310;241;28791;-71
2022/08/05 04:21:14;;;;;;;3.33;2.57;;;20.20;99.90;;;;;;493271;241;28757;-68
2022/08/05 04:23:15;;;;;;;2.90;2.70;;;20.20;99.90;;;;;;493263;241;28740;-69
2022/08/05 04:25:16;;;;;;;3.13;2.93;;;20.10;99.90;;;;;;493259;241;28703;-69
2022/08/05 04:27:18;;;;;;;2.97;2.77;;;20.10;99.90;;;;;;493199;241;28681;-70
2022/08/05 04:29:19;;;;;;;3.67;3.37;;;20.10;99.90;;;;;;493268;241;28721;-69
2022/08/05 04:31:20;;;;;;;3.40;3.20;;;20.10;99.90;;;;;;493262;241;29204;-69
2022/08/05 04:33:21;;;;;;;3.00;2.80;;;20.20;99.90;;;;;;493260;241;29191;-71
2022/08/05 04:35:23;;;;;;;3.37;3.07;;;20.20;99.90;;;;;;493046;241;29858;-69
2022/08/05 04:37:24;;;;;;;3.00;2.80;;;20.20;99.90;;;;;;493227;241;28684;-70
2022/08/05 04:39:25;;;;;;;4.07;3.20;;;20.10;99.90;;;;;;493276;241;28768;-71
2022/08/05 04:41:26;;;;;;;3.30;3.03;;;20.10;99.90;;;;;;493250;241;28807;-68
2022/08/05 04:43:28;;;;;;;2.87;2.67;;;20.20;99.90;;;;;;493264;241;28783;-69
2022/08/05 04:45:29;;;;;;;2.63;2.47;;;20.40;99.90;;;;;;493255;241;28679;-69
2022/08/05 04:47:30;;;;;;;3.10;2.90;;;20.60;99.90;;;;;;493036;241;28708;-69
2022/08/05 04:49:32;;;;;;;2.77;2.60;;;20.60;99.90;;;;;;493298;241;28725;-72
2022/08/05 04:51:33;;;;;;;2.87;2.63;;;20.60;99.90;;;;;;493281;241;28680;-69
2022/08/05 04:53:34;;;;;;;3.47;2.90;;;20.70;99.90;;;;;;493271;241;28795;-69
2022/08/05 04:55:35;;;;;;;3.63;2.83;;;20.70;99.90;;;;;;493257;241;29150;-69
2022/08/05 04:57:36;;;;;;;2.77;2.60;;;20.70;99.90;;;;;;493206;241;29212;-69
2022/08/05 04:59:38;;;;;;;2.80;2.60;;;20.80;99.90;;;;;;493263;241;29210;-71
2022/08/05 05:01:39;;;;;;;3.20;3.00;;;20.80;99.90;;;;;;493247;241;29124;-69
2022/08/05 05:03:40;;;;;;;4.13;3.40;;;20.80;99.90;;;;;;493260;241;28733;-70
2022/08/05 05:05:41;;;;;;;3.47;3.27;;;20.90;99.90;;;;;;493257;241;28744;-69
2022/08/05 05:07:43;;;;;;;4.07;3.10;;;20.90;99.90;;;;;;493244;241;28780;-69
2022/08/05 05:09:44;;;;;;;2.90;2.70;;;20.90;99.90;;;;;;493181;241;28740;-73
2022/08/05 05:11:45;;;;;;;2.90;2.70;;;20.90;99.90;;;;;;493311;241;28781;-69
2022/08/05 05:13:46;;;;;;;3.30;3.10;;;20.90;99.90;;;;;;493278;241;28739;-68
2022/08/05 05:15:48;;;;;;;3.80;2.80;;;20.90;99.90;;;;;;493235;241;28780;-69
2022/08/05 05:17:49;;;;;;;3.20;3.00;;;20.80;99.90;;;;;;493178;241;28775;-69
2022/08/05 05:19:50;;;;;;;2.77;2.57;;;20.80;99.90;;;;;;493283;241;29181;-71
2022/08/05 05:21:51;;;;;;;3.20;2.83;;;20.70;99.90;;;;;;493285;241;29204;-69
2022/08/05 05:23:53;;;;;;;3.20;3.00;;;20.70;99.90;;;;;;493279;241;29178;-70
2022/08/05 05:25:54;;;;;;;3.43;3.23;;;20.80;99.90;;;;;;493289;241;30009;-68
2022/08/05 05:27:55;;;;;;;3.10;2.90;;;20.80;99.90;;;;;;493216;241;28780;-68
2022/08/05 05:29:56;;;;;;;3.30;3.10;;;20.90;99.90;;;;;;493297;241;28744;-71
2022/08/05 05:31:58;;;;;;;3.10;2.90;;;21.00;99.90;;;;;;493331;241;28669;-69
2022/08/05 05:33:59;;;;;;;3.30;3.00;;;21.20;99.90;;;;;;493322;241;28715;-68
2022/08/05 05:36:00;;;;;;;3.70;3.40;;;21.30;99.90;;;;;;493150;241;28664;-69
2022/08/05 05:38:02;;;;;;;3.33;3.03;;;21.40;99.90;;;;;;493268;241;28689;-69
2022/08/05 05:40:03;;;;;;;3.07;2.83;;;21.50;99.90;;;;;;493318;241;28815;-70
2022/08/05 05:42:04;;;;;;;2.73;2.60;;;21.50;99.90;;;;;;493309;241;28673;-69
2022/08/05 05:44:05;;;;;;;2.90;2.70;;;21.50;99.90;;;;;;493302;241;28703;-69
2022/08/05 05:46:06;;;;;;;3.00;2.80;;;21.60;99.90;;;;;;493254;241;29939;-70
2022/08/05 05:48:08;;;;;;;3.00;2.80;;;21.60;99.90;;;;;;493268;241;29243;-69
2022/08/05 05:50:09;;;;;;;3.40;3.20;;;21.70;99.90;;;;;;493299;241;29186;-70
2022/08/05 05:52:10;;;;;;;3.27;2.97;;;21.70;99.90;;;;;;493294;241;28674;-69
2022/08/05 05:54:11;;;;;;;3.10;2.90;;;21.70;99.90;;;;;;493275;241;28704;-70
2022/08/05 05:56:13;;;;;;;3.00;2.80;;;21.70;99.90;;;;;;493216;241;28687;-69
2022/08/05 05:58:14;;;;;;;3.67;2.80;;;21.70;99.90;;;;;;493276;241;28781;-69
2022/08/05 06:00:15;;;;;;;4.30;2.60;;;21.70;99.90;;;;;;493286;241;28779;-72
2022/08/05 06:02:16;;;;;;;2.93;2.73;;;21.70;99.90;;;;;;493277;241;28733;-69
2022/08/05 06:04:18;;;;;;;2.90;2.70;;;21.70;99.90;;;;;;493281;241;28719;-70
2022/08/05 06:06:19;;;;;;;2.77;2.67;;;21.60;99.90;;;;;;493208;241;28835;-69
2022/08/05 06:08:20;;;;;;;3.03;2.83;;;21.60;99.90;;;;;;493263;241;29167;-69
2022/08/05 06:10:21;;;;;;;2.60;2.50;;;21.50;99.90;;;;;;493279;241;29188;-71
2022/08/05 06:12:23;;;;;;;3.23;3.03;;;21.50;99.90;;;;;;493299;241;29242;-69
2022/08/05 06:14:24;;;;;;;3.13;2.90;;;21.60;99.90;;;;;;493288;241;28732;-70
2022/08/05 06:16:25;;;;;;;2.57;2.47;;;21.50;99.90;;;;;;493226;241;28722;-69
2022/08/05 06:18:26;;;;;;;3.20;2.90;;;21.50;99.90;;;;;;493233;241;28699;-70
2022/08/05 06:20:28;;;;;;;2.90;2.70;;;21.40;99.90;;;;;;493294;241;28715;-71
2022/08/05 06:22:29;;;;;;;2.93;2.73;;;21.40;99.90;;;;;;493296;241;28743;-71
2022/08/05 06:24:30;;;;;;;3.00;2.80;;;21.20;99.90;;;;;;493259;241;28720;-70
2022/08/05 06:26:31;;;;;;;3.00;2.80;;;21.10;99.90;;;;;;493226;241;28684;-69
2022/08/05 06:28:33;;;;;;;3.17;2.97;;;21.10;99.90;;;;;;493271;241;28685;-70
2022/08/05 06:30:34;;;;;;;2.77;2.57;;;21.10;99.90;;;;;;493287;241;28796;-71
2022/08/05 06:32:35;;;;;;;3.53;3.30;;;20.90;99.90;;;;;;493286;241;29281;-70
2022/08/05 06:34:37;;;;;;;3.10;2.90;;;20.80;99.90;;;;;;493269;241;29218;-70
2022/08/05 06:36:38;;;;;;;3.70;3.10;;;20.70;99.90;;;;;;493086;241;29202;-69
2022/08/05 06:38:39;;;;;;;3.20;2.93;;;20.60;99.90;;;;;;493205;241;29151;-70
2022/08/05 06:40:40;;;;;;;3.80;3.50;;;20.50;99.90;;;;;;493278;241;28709;-71
2022/08/05 06:42:41;;;;;;;3.53;3.23;;;20.50;99.90;;;;;;493274;241;28682;-69
2022/08/05 06:44:43;;;;;;;3.10;2.90;;;20.50;99.90;;;;;;493282;241;28780;-70
2022/08/05 06:46:44;;;;;;;3.00;2.80;;;20.60;99.90;;;;;;493208;241;28677;-69
2022/08/05 06:48:45;;;;;;;3.60;3.00;;;20.50;99.90;;;;;;493210;241;28805;-70
2022/08/05 06:50:46;;;;;;;3.60;3.30;;;20.40;99.90;;;;;;493297;241;28804;-70
2022/08/05 06:52:48;;;;;;;3.33;3.03;;;20.40;99.90;;;;;;493287;241;28787;-70
2022/08/05 06:54:49;;;;;;;3.57;2.93;;;20.40;99.90;;;;;;493291;241;28708;-70
2022/08/05 06:56:50;;;;;;;3.23;2.90;;;20.30;99.90;;;;;;493264;241;30109;-69
2022/08/05 06:58:51;;;;;;;7.33;3.47;;;20.30;99.90;;;;;;493319;241;29220;-69
2022/08/05 07:00:53;;;;;;;3.20;3.00;;;20.30;99.90;;;;;;493319;241;29220;-72
2022/08/05 07:02:54;;;;;;;3.43;2.77;;;20.40;99.90;;;;;;493307;241;29251;-69
2022/08/05 07:04:55;;;;;;;2.90;2.57;;;20.50;99.90;;;;;;493291;241;28744;-70
2022/08/05 07:06:56;;;;;;;3.33;3.13;;;20.50;99.90;;;;;;493213;241;28720;-69
2022/08/05 07:08:58;;;;;;;3.30;3.00;;;20.50;99.90;;;;;;493276;241;28689;-69
2022/08/05 07:10:59;;;;;;;2.63;2.43;;;20.50;99.90;;;;;;493284;241;28776;-73
2022/08/05 07:17:40;;;;;;;2.90;2.70;;;20.60;99.90;;;;;;493219;241;28728;-70
2022/08/05 07:19:41;;;;;;;2.60;2.50;;;20.60;99.90;;;;;;493262;241;28776;-69
2022/08/05 07:21:42;;;;;;;2.93;2.73;;;20.60;99.90;;;;;;493253;241;28699;-69
2022/08/05 07:23:43;;;;;;;3.50;3.23;;;20.60;99.90;;;;;;493293;241;28726;-71
2022/08/05 07:25:45;;;;;;;3.10;2.90;;;20.60;99.90;;;;;;493261;241;29221;-75
2022/08/05 07:27:46;;;;;;;3.03;2.60;;;20.70;99.90;;;;;;493211;241;29195;-69
2022/08/05 07:29:47;;;;;;;2.80;2.60;;;20.70;99.90;;;;;;493264;241;29147;-69
2022/08/05 07:31:48;;;;;;;2.90;2.70;;;20.80;99.90;;;;;;493269;241;28780;-69
2022/08/05 07:33:50;;;;;;;2.90;2.70;;;20.80;99.90;;;;;;493271;241;29272;-71
2022/08/05 07:35:51;;;;;;;2.93;2.73;;;20.80;99.90;;;;;;493170;241;28684;-69
2022/08/05 07:37:52;;;;;;;3.50;3.00;;;20.80;99.90;;;;;;493223;241;28720;-69
2022/08/05 07:39:53;;;;;;;2.70;2.50;;;20.70;99.90;;;;;;493264;241;28799;-70
2022/08/05 07:41:55;;;;;;;3.47;3.17;;;20.80;99.90;;;;;;493262;241;28780;-69
2022/08/05 07:43:56;;;;;;;3.10;2.90;;;21.00;99.90;;;;;;493289;241;28784;-71
2022/08/05 07:45:57;;;;;;;3.57;3.30;;;21.10;99.90;;;;;;493266;241;29180;-69
2022/08/05 07:47:58;;;;;;;3.00;2.80;;;21.10;99.90;;;;;;493210;241;28740;-70
2022/08/05 07:50:00;;;;;;;3.27;3.07;;;21.00;99.90;;;;;;493263;241;29162;-70
2022/08/05 07:52:01;;;;;;;3.13;2.90;;;21.00;99.90;;;;;;493246;241;29193;-69
2022/08/05 07:54:02;;;;;;;3.20;3.00;;;21.00;99.90;;;;;;493273;241;29203;-72
2022/08/05 07:56:03;;;;;;;2.83;2.63;;;20.90;99.90;;;;;;493233;241;29196;-70
2022/08/05 07:58:05;;;;;;;4.77;3.40;;;20.70;99.90;;;;;;493235;241;28709;-69
2022/08/05 08:00:06;;;;;;;2.87;2.67;;;20.60;99.90;;;;;;493272;241;28697;-69
2022/08/05 08:02:07;;;;;;;2.97;2.77;;;20.50;99.90;;;;;;493268;241;28719;-69
2022/08/05 08:04:08;;;;;;;3.50;3.20;;;20.60;99.90;;;;;;493275;241;28717;-72
2022/08/05 08:06:10;;;;;;;3.20;3.00;;;20.50;99.90;;;;;;493206;241;28748;-69
2022/08/05 08:08:11;;;;;;;3.50;3.30;;;20.50;99.90;;;;;;493280;241;28707;-70
2022/08/05 08:10:12;;;;;;;3.00;2.70;;;20.30;99.90;;;;;;493293;241;28777;-69
2022/08/05 08:12:13;;;;;;;2.73;2.53;;;20.30;99.90;;;;;;493288;241;28783;-69
2022/08/05 08:14:15;;;;;;;3.17;2.97;;;20.50;99.90;;;;;;493291;241;28791;-71
2022/08/05 08:16:16;;;;;;;3.67;3.37;;;20.50;99.90;;;;;;493211;241;29149;-69
2022/08/05 08:18:17;;;;;;;2.97;2.77;;;20.60;99.90;;;;;;493271;241;29201;-70
2022/08/05 08:20:18;;;;;;;3.23;3.03;;;20.60;99.90;;;;;;493279;241;30055;-69
2022/08/05 08:22:20;;;;;;;3.30;3.10;;;20.50;99.90;;;;;;493313;241;28783;-69
2022/08/05 08:24:21;;;;;;;2.87;2.67;;;20.50;99.90;;;;;;493270;241;28788;-71
2022/08/05 08:26:22;;;;;;;3.07;2.70;;;20.60;99.90;;;;;;493218;241;28672;-69
2022/08/05 08:28:23;;;;;;;3.20;2.90;;;20.80;99.90;;;;;;493259;241;28721;-70
2022/08/05 08:30:25;;;;;;;3.03;2.73;;;20.80;99.90;;;;;;493273;241;28760;-69
2022/08/05 08:32:26;;;;;;;2.70;2.50;;;21.00;99.90;;;;;;493279;241;28684;-69
2022/08/05 08:34:27;;;;;;;3.53;3.27;;;20.90;99.90;;;;;;493293;241;28833;-71
2022/08/05 08:36:28;;;;;;;3.20;2.90;;;20.80;99.90;;;;;;493090;241;28777;-69
2022/08/05 08:38:30;;;;;;;2.90;2.60;;;20.80;99.90;;;;;;493261;241;28712;-71
2022/08/05 08:40:31;;;;;;;2.87;2.60;;;20.90;99.90;;;;;;493260;241;29944;-69
2022/08/05 08:42:32;;;;;;;2.90;2.70;;;21.00;99.90;;;;;;493283;241;29151;-70
2022/08/05 08:44:33;;;;;;;2.90;2.70;;;21.00;99.90;;;;;;493307;241;29182;-72
2022/08/05 08:46:35;;;;;;;3.20;3.00;;;21.00;99.90;;;;;;493252;241;28679;-69
2022/08/05 08:48:36;;;;;;;3.50;2.67;;;21.10;99.90;;;;;;493268;241;28713;-70
2022/08/05 08:50:37;;;;;;;3.50;3.23;;;21.10;99.90;;;;;;493272;241;28785;-70
2022/08/05 08:52:38;;;;;;;2.30;2.20;;;21.20;99.90;;;;;;493295;241;28683;-69
2022/08/05 08:54:40;;;;;;;3.03;2.73;;;21.40;99.90;;;;;;493298;241;28770;-71
2022/08/05 08:56:41;;;;;;;2.97;2.77;;;21.60;99.90;;;;;;493230;241;28704;-69
2022/08/05 08:58:42;;;;;;;2.57;2.37;;;21.80;99.90;;;;;;493274;241;28715;-69
2022/08/05 09:00:43;;;;;;;2.63;2.43;;;22.10;99.90;;;;;;493286;241;28757;-69
2022/08/05 09:02:45;;;;;;;2.53;2.33;;;22.30;99.90;;;;;;493284;241;28696;-69
2022/08/05 09:04:46;;;;;;;2.93;2.73;;;22.60;99.90;;;;;;493276;241;29170;-71
2022/08/05 09:06:47;;;;;;;2.63;2.43;;;22.70;99.90;;;;;;493227;241;29301;-70
2022/08/05 09:08:49;;;;;;;2.47;2.33;;;22.80;99.90;;;;;;493264;241;29305;-70
2022/08/05 09:10:50;;;;;;;3.00;2.10;;;23.00;99.90;;;;;;493281;241;29852;-69
2022/08/05 09:12:51;;;;;;;3.47;2.50;;;22.90;99.90;;;;;;493290;241;28826;-70
2022/08/05 09:14:52;;;;;;;2.53;2.33;;;23.10;99.90;;;;;;493278;241;28716;-71
2022/08/05 09:16:53;;;;;;;2.83;2.30;;;23.20;99.90;;;;;;493220;241;28748;-70
2022/08/05 09:18:55;;;;;;;2.77;2.60;;;23.30;99.90;;;;;;493281;241;28776;-70
2022/08/05 09:20:56;;;;;;;2.70;2.50;;;23.30;99.90;;;;;;493281;241;28720;-69
2022/08/05 09:22:57;;;;;;;3.23;2.97;;;23.20;99.90;;;;;;493303;241;28732;-70
2022/08/05 09:24:58;;;;;;;3.10;2.83;;;23.10;99.90;;;;;;493297;241;28712;-71
2022/08/05 09:27:00;;;;;;;2.83;2.63;;;23.00;99.90;;;;;;493241;241;28669;-69
2022/08/05 09:29:03;;;;;;;3.67;2.80;;;23.20;99.90;;;;;;490243;241;36383;-70
2022/08/05 09:31:06;;;;;;;2.70;2.57;;;23.10;99.90;;;;;;493137;241;27963;-69
2022/08/05 09:33:03;;;;;;;2.77;2.57;;;23.30;99.90;;;;;;493092;241;29132;-70
2022/08/05 09:35:07;;;;;;;2.87;2.67;;;23.40;99.90;;;;;;493177;241;28716;-70
2022/08/05 09:37:06;;;;;;;2.90;2.70;;;23.60;99.90;;;;;;493109;241;28767;-72
2022/08/05 09:39:07;;;;;;;3.10;2.80;;;23.80;99.90;;;;;;493289;241;28692;-71
2022/08/05 09:41:12;;;;;;;3.77;2.80;;;23.90;99.90;;;;;;493335;241;28791;-72
2022/08/05 09:43:13;;;;;;;3.07;2.80;;;23.70;99.90;;;;;;493324;241;29204;-70
2022/08/05 09:45:15;;;;;;;3.30;2.73;;;23.80;99.90;;;;;;493307;241;29228;-69
2022/08/05 09:47:15;;;;;;;2.80;2.60;;;23.70;99.90;;;;;;493110;241;29238;-70
2022/08/05 09:49:17;;;;;;;2.73;2.53;;;23.40;99.90;;;;;;493284;241;28755;-72
2022/08/05 09:51:18;;;;;;;3.40;3.00;;;23.30;99.90;;;;;;493298;241;28672;-69
2022/08/05 09:53:19;;;;;;;3.47;3.17;;;23.30;99.90;;;;;;493315;241;28739;-70
2022/08/05 09:55:20;;;;;;;3.70;3.40;;;23.10;99.90;;;;;;493325;241;28762;-69
2022/08/05 09:57:22;;;;;;;3.10;2.90;;;23.10;99.90;;;;;;493218;241;28705;-69
2022/08/05 09:59:23;;;;;;;5.77;3.23;;;23.00;99.90;;;;;;493309;241;28826;-73
2022/08/05 10:01:24;;;;;;;3.23;3.00;;;22.90;99.90;;;;;;493190;241;28685;-70
2022/08/05 10:03:25;;;;;;;3.40;3.10;;;23.00;99.90;;;;;;493242;241;28777;-70
2022/08/05 10:05:27;;;;;;;2.90;2.70;;;23.20;99.90;;;;;;493285;241;28724;-69
2022/08/05 10:07:28;;;;;;;4.90;2.80;;;23.60;99.90;;;;;;493228;241;29167;-69
2022/08/05 10:09:29;;;;;;;7.10;3.43;;;23.60;99.90;;;;;;493251;241;29212;-73
2022/08/05 10:11:30;;;;;;;4.20;3.40;;;23.40;99.90;;;;;;493312;241;29230;-69
2022/08/05 10:13:32;;;;;;;3.70;3.40;;;23.30;99.90;;;;;;493289;241;29229;-70
2022/08/05 10:15:33;;;;;;;3.83;3.13;;;23.20;99.90;;;;;;493267;241;28789;-70
2022/08/05 10:17:34;;;;;;;3.67;3.37;;;22.90;99.90;;;;;;493164;241;28712;-70
2022/08/05 10:19:35;;;;;;;3.53;3.23;;;22.70;99.90;;;;;;493308;241;28793;-73
2022/08/05 10:21:37;;;;;;;3.97;2.80;;;22.70;99.90;;;;;;493282;241;29026;-69
2022/08/05 10:23:38;;;;;;;3.90;3.60;;;22.90;99.90;;;;;;493261;241;28810;-69
2022/08/05 10:25:39;;;;;;;3.17;2.87;;;23.00;99.90;;;;;;493254;241;28682;-70
2022/08/05 10:27:40;;;;;;;3.03;2.83;;;23.00;99.90;;;;;;493172;241;28660;-69
2022/08/05 10:29:42;;;;;;;3.23;2.87;;;23.30;99.90;;;;;;493260;241;28747;-70
2022/08/05 10:31:43;;;;;;;4.17;3.10;;;23.60;99.90;;;;;;493268;241;29128;-69
2022/08/05 10:33:44;;;;;;;3.30;3.10;;;23.60;99.90;;;;;;493251;241;29176;-70
2022/08/05 10:35:45;;;;;;;3.73;2.97;;;23.70;99.90;;;;;;493170;241;29208;-70